Thunder radar more information blitzortung!


Radar de pluja more information rain snow radar


Visita la nostra xarxa de llocs de meteo:

Template documentation
and downloads

And another site



No particular awareness of the weather is required.    There are no Weather-warnings

Pagina Historial Weather Underground text

Diari Resum May 20, 2016 Unitats:  Mètric    Imperial   Tant
« Previous Dia
SegĂźent Dia »
Diari Setmana Mensual Anual Personalitzada
  Maxima: Minima: Media:
Temperatura: 25.5 °C 13.9 °C 19.8 °C
Punt de rosada: 13.6 °C 9.8 °C 11.5 °C
Humitat: 86 % 44 % 60 %
Wind Speed: 22.2 km/h 0.0 km/h 7.1 km/h
RĂ fegues de vent: 22.2 km/h - -
Vent:- - SSW
Pression baro: 1022.9 hPa 1019.9 hPa -
Precipitacions: 0.0 mm    
Historical Graphs
 
 
Dades de taula per May 20, 2016
Temps Temperatura Punt de rosada Pression baro Vent Wind Speed RĂ fegues de vent Humitat Rainfall Rate (Hourly)
00:00 15.5 °C 10.7 °C 1020.9 hPa ESE 9.3 km/h 11.1 km/h 73 % 0.0 mm
00:05 15.5 °C 10.7 °C 1020.9 hPa ESE 9.3 km/h 11.1 km/h 73 % 0.0 mm
00:10 15.5 °C 10.7 °C 1020.9 hPa ESE 9.3 km/h 11.1 km/h 73 % 0.0 mm
00:35 14.7 °C 11.1 °C 1021.9 hPa Calm   3.2 km/h 79 % 0.0 mm
01:05 14.8 °C 11.2 °C 1021.9 hPa WSW 1.6 km/h 1.6 km/h 79 % 0.0 mm
01:15 14.7 °C 11.1 °C 1021.9 hPa Calm     79 % 0.0 mm
01:25 14.6 °C 11.0 °C 1021.9 hPa Calm   1.6 km/h 79 % 0.0 mm
01:35 14.5 °C 10.9 °C 1021.9 hPa Calm     79 % 0.0 mm
01:45 14.4 °C 11.0 °C 1021.9 hPa Calm     80 % 0.0 mm
01:55 14.3 °C 10.7 °C 1021.9 hPa Calm   1.6 km/h 79 % 0.0 mm
02:05 14.4 °C 10.8 °C 1021.9 hPa West 1.6 km/h 1.6 km/h 79 % 0.0 mm
02:15 14.5 °C 11.1 °C 1021.9 hPa Calm     80 % 0.0 mm
02:25 14.6 °C 11.2 °C 1022.9 hPa Calm   1.6 km/h 80 % 0.0 mm
02:35 14.8 °C 11.4 °C 1021.9 hPa Calm   1.6 km/h 80 % 0.0 mm
02:45 14.9 °C 11.5 °C 1021.9 hPa Calm     80 % 0.0 mm
02:55 15.3 °C 12.1 °C 1021.9 hPa Calm   1.6 km/h 81 % 0.0 mm
03:05 15.5 °C 12.1 °C 1021.9 hPa East 1.6 km/h 3.2 km/h 80 % 0.0 mm
03:15 15.6 °C 11.9 °C 1021.9 hPa NE 3.2 km/h 4.8 km/h 79 % 0.0 mm
03:25 16.0 °C 12.2 °C 1021.9 hPa ENE 3.2 km/h 4.8 km/h 78 % 0.0 mm
03:35 16.3 °C 12.3 °C 1021.9 hPa NE 1.6 km/h 6.4 km/h 77 % 0.0 mm
03:45 16.5 °C 12.3 °C 1021.9 hPa NNE 3.2 km/h 4.8 km/h 76 % 0.0 mm
03:55 16.9 °C 12.4 °C 1022.9 hPa NE 1.6 km/h 6.4 km/h 75 % 0.0 mm
04:05 17.0 °C 12.1 °C 1021.9 hPa NE 3.2 km/h 4.8 km/h 73 % 0.0 mm
04:15 17.4 °C 12.3 °C 1021.9 hPa East 3.2 km/h 3.2 km/h 72 % 0.0 mm
04:25 17.6 °C 12.5 °C 1021.9 hPa SW 3.2 km/h 3.2 km/h 72 % 0.0 mm
04:35 18.0 °C 12.4 °C 1021.9 hPa North 3.2 km/h 4.8 km/h 70 % 0.0 mm
04:45 18.1 °C 12.1 °C 1021.9 hPa West 1.6 km/h 4.8 km/h 68 % 0.0 mm
04:55 18.5 °C 12.5 °C 1021.9 hPa East 1.6 km/h 4.8 km/h 68 % 0.0 mm
05:05 19.4 °C 12.9 °C 1021.9 hPa ENE 1.6 km/h 4.8 km/h 66 % 0.0 mm
05:15 18.8 °C 12.3 °C 1021.9 hPa ESE 1.6 km/h 6.4 km/h 66 % 0.0 mm
05:25 18.8 °C 12.3 °C 1021.9 hPa ENE 4.8 km/h 8.0 km/h 66 % 0.0 mm
05:35 19.1 °C 12.4 °C 1021.9 hPa ENE 3.2 km/h 6.4 km/h 65 % 0.0 mm
05:45 19.9 °C 12.9 °C 1021.9 hPa SW 1.6 km/h 4.8 km/h 64 % 0.0 mm
05:55 20.7 °C 12.9 °C 1021.9 hPa SW 1.6 km/h 3.2 km/h 61 % 0.0 mm
06:05 20.2 °C 11.9 °C 1022.9 hPa SW 1.6 km/h 8.0 km/h 59 % 0.0 mm
06:15 20.7 °C 12.1 °C 1022.9 hPa WSW 4.8 km/h 4.8 km/h 58 % 0.0 mm
06:25 21.2 °C 12.6 °C 1021.9 hPa WNW 3.2 km/h 3.2 km/h 58 % 0.0 mm
06:35 20.7 °C 12.1 °C 1022.9 hPa East 4.8 km/h 6.4 km/h 58 % 0.0 mm
06:45 21.3 °C 12.7 °C 1022.9 hPa East 1.6 km/h 6.4 km/h 58 % 0.0 mm
06:55 22.2 °C 12.4 °C 1021.9 hPa South 4.8 km/h 4.8 km/h 54 % 0.0 mm
07:05 23.1 °C 12.7 °C 1021.9 hPa SSW 3.2 km/h 6.4 km/h 52 % 0.0 mm
07:15 22.9 °C 12.5 °C 1021.9 hPa SSW 4.8 km/h 6.4 km/h 52 % 0.0 mm
07:25 23.2 °C 12.2 °C 1021.9 hPa SSW 1.6 km/h 3.2 km/h 50 % 0.0 mm
07:35 23.4 °C 11.8 °C 1021.9 hPa South 8.0 km/h 9.7 km/h 48 % 0.0 mm
07:45 23.8 °C 12.4 °C 1021.9 hPa SSE 3.2 km/h 4.8 km/h 49 % 0.0 mm
07:55 24.0 °C 12.0 °C 1021.9 hPa SSW 4.8 km/h 9.7 km/h 47 % 0.0 mm
08:05 24.1 °C 11.4 °C 1021.9 hPa SW 4.8 km/h 6.4 km/h 45 % 0.0 mm
08:15 23.7 °C 11.4 °C 1021.9 hPa SW 3.2 km/h 6.4 km/h 46 % 0.0 mm
08:25 24.5 °C 12.1 °C 1020.9 hPa SW 3.2 km/h 4.8 km/h 46 % 0.0 mm
08:35 25.5 °C 12.7 °C 1020.9 hPa SSW 3.2 km/h 6.4 km/h 45 % 0.0 mm
08:45 24.1 °C 12.4 °C 1020.9 hPa ESE 12.9 km/h 12.9 km/h 48 % 0.0 mm
08:50 24.2 °C 12.5 °C 1020.9 hPa ESE 9.7 km/h 9.7 km/h 48 % 0.0 mm
13:53 24.2 °C 12.5 °C 1020.9 hPa South 9.3 km/h 9.3 km/h 48 % 0.0 mm
13:58 24.5 °C 13.1 °C 1020.9 hPa SSE 1.9 km/h 5.8 km/h 49 % 0.0 mm
14:03 24.4 °C 13.0 °C 1020.9 hPa NE 11.9 km/h 11.9 km/h 49 % 0.0 mm
14:08 23.9 °C 12.8 °C 1020.9 hPa ESE 18.5 km/h 18.5 km/h 50 % 0.0 mm
14:13 23.2 °C 12.2 °C 1020.9 hPa ESE 13.7 km/h 15.8 km/h 50 % 0.0 mm
14:18 22.8 °C 12.4 °C 1020.9 hPa East 20.4 km/h 20.4 km/h 52 % 0.0 mm
14:23 23.4 °C 12.7 °C 1020.9 hPa ESE 22.2 km/h 22.2 km/h 51 % 0.0 mm
14:28 23.4 °C 13.0 °C 1020.9 hPa SE 16.7 km/h 16.7 km/h 52 % 0.0 mm
14:33 23.1 °C 12.7 °C 1020.9 hPa East 16.1 km/h 16.1 km/h 52 % 0.0 mm
14:38 22.8 °C 13.0 °C 1019.9 hPa SE 22.2 km/h 22.2 km/h 54 % 0.0 mm
14:43 22.9 °C 13.1 °C 1019.9 hPa ESE 16.7 km/h 16.7 km/h 54 % 0.0 mm
14:48 22.4 °C 12.6 °C 1019.9 hPa East 16.7 km/h 16.7 km/h 54 % 0.0 mm
14:53 22.6 °C 12.8 °C 1020.9 hPa East 18.5 km/h 18.5 km/h 54 % 0.0 mm
14:58 22.5 °C 12.7 °C 1020.9 hPa ESE 16.7 km/h 16.7 km/h 54 % 0.0 mm
15:03 22.2 °C 12.7 °C 1020.9 hPa SE 16.7 km/h 16.7 km/h 55 % 0.0 mm
15:08 22.1 °C 12.6 °C 1020.9 hPa ESE 13.0 km/h 13.0 km/h 55 % 0.0 mm
15:13 22.0 °C 12.6 °C 1020.9 hPa SSE 13.0 km/h 13.0 km/h 55 % 0.0 mm
15:18 22.0 °C 12.6 °C 1020.9 hPa ENE 9.3 km/h 9.3 km/h 55 % 0.0 mm
15:23 21.9 °C 12.7 °C 1020.9 hPa ENE 13.0 km/h 13.0 km/h 56 % 0.0 mm
15:28 21.7 °C 12.6 °C 1020.9 hPa ESE 10.3 km/h 11.1 km/h 56 % 0.0 mm
15:33 21.7 °C 12.6 °C 1020.9 hPa SE 11.1 km/h 11.1 km/h 56 % 0.0 mm
15:38 21.7 °C 12.6 °C 1020.9 hPa SE 18.5 km/h 18.5 km/h 56 % 0.0 mm
15:43 22.0 °C 12.8 °C 1020.9 hPa ESE 9.5 km/h 9.5 km/h 56 % 0.0 mm
15:48 22.1 °C 12.6 °C 1020.9 hPa East 11.1 km/h 11.1 km/h 55 % 0.0 mm
15:53 22.8 °C 13.3 °C 1020.9 hPa SE 7.4 km/h 7.4 km/h 55 % 0.0 mm
15:58 23.1 °C 13.0 °C 1020.9 hPa SSW 11.1 km/h 11.1 km/h 53 % 0.0 mm
16:03 23.3 °C 13.2 °C 1020.9 hPa SW 12.6 km/h 12.6 km/h 53 % 0.0 mm
16:08 23.9 °C 13.4 °C 1020.9 hPa SSE 5.6 km/h 6.1 km/h 52 % 0.0 mm
16:14 24.4 °C 13.6 °C 1020.9 hPa SW 7.4 km/h 7.4 km/h 51 % 0.0 mm
16:19 24.3 °C 12.9 °C 1020.9 hPa WSW 13.0 km/h 13.0 km/h 49 % 0.0 mm
16:24 24.9 °C 13.4 °C 1020.9 hPa South 7.4 km/h 7.4 km/h 49 % 0.0 mm
16:29 24.5 °C 13.1 °C 1020.9 hPa SSW 7.4 km/h 7.4 km/h 49 % 0.0 mm
16:34 24.5 °C 12.8 °C 1020.9 hPa WSW 7.4 km/h 7.4 km/h 48 % 0.0 mm
16:39 24.6 °C 12.8 °C 1020.9 hPa NNE 13.0 km/h 13.0 km/h 48 % 0.0 mm
16:44 24.4 °C 12.3 °C 1020.9 hPa SW 7.4 km/h 7.4 km/h 47 % 0.0 mm
16:49 24.4 °C 12.0 °C 1020.9 hPa SW 13.0 km/h 13.0 km/h 46 % 0.0 mm
16:54 24.3 °C 11.9 °C 1019.9 hPa SW 11.1 km/h 11.1 km/h 46 % 0.0 mm
16:59 24.4 °C 12.0 °C 1019.9 hPa SSW 7.4 km/h 7.4 km/h 46 % 0.0 mm
17:04 24.7 °C 12.3 °C 1019.9 hPa WSW 9.3 km/h 9.3 km/h 46 % 0.0 mm
17:09 24.3 °C 11.6 °C 1019.9 hPa SSW 14.8 km/h 14.8 km/h 45 % 0.0 mm
17:14 24.6 °C 11.9 °C 1019.9 hPa SW 13.0 km/h 13.0 km/h 45 % 0.0 mm
17:19 24.6 °C 11.9 °C 1019.9 hPa WSW 9.3 km/h 9.3 km/h 45 % 0.0 mm
17:24 24.5 °C 11.8 °C 1019.9 hPa South 9.3 km/h 9.3 km/h 45 % 0.0 mm
17:29 24.2 °C 11.2 °C 1019.9 hPa WSW 13.0 km/h 13.0 km/h 44 % 0.0 mm
17:34 24.1 °C 11.4 °C 1019.9 hPa SW 4.7 km/h 4.7 km/h 45 % 0.0 mm
17:39 24.2 °C 11.5 °C 1019.9 hPa WSW 10.3 km/h 10.3 km/h 45 % 0.0 mm
17:44 24.0 °C 11.3 °C 1019.9 hPa SSW 9.3 km/h 9.3 km/h 45 % 0.0 mm
17:49 23.9 °C 11.2 °C 1019.9 hPa SW 13.0 km/h 13.0 km/h 45 % 0.0 mm
17:54 23.5 °C 11.2 °C 1019.9 hPa WSW 14.8 km/h 14.8 km/h 46 % 0.0 mm
17:59 23.6 °C 11.3 °C 1019.9 hPa SSW 14.8 km/h 14.8 km/h 46 % 0.0 mm
18:04 23.7 °C 11.4 °C 1019.9 hPa WSW 9.3 km/h 9.3 km/h 46 % 0.0 mm
18:09 23.2 °C 10.9 °C 1019.9 hPa SSW 13.0 km/h 13.0 km/h 46 % 0.0 mm
18:14 23.5 °C 11.6 °C 1019.9 hPa SSW 11.9 km/h 11.9 km/h 47 % 0.0 mm
18:19 23.5 °C 11.6 °C 1019.9 hPa SW 9.5 km/h 9.5 km/h 47 % 0.0 mm
18:24 23.5 °C 11.6 °C 1019.9 hPa SSW 13.0 km/h 13.0 km/h 47 % 0.0 mm
18:29 23.3 °C 11.7 °C 1019.9 hPa SSE 5.3 km/h 5.3 km/h 48 % 0.0 mm
18:34 23.3 °C 11.7 °C 1019.9 hPa SSW 16.7 km/h 16.7 km/h 48 % 0.0 mm
18:39 22.6 °C 11.3 °C 1019.9 hPa SW 13.0 km/h 13.0 km/h 49 % 0.0 mm
18:44 22.4 °C 11.2 °C 1019.9 hPa WSW 7.4 km/h 7.4 km/h 49 % 0.0 mm
18:49 22.7 °C 11.4 °C 1019.9 hPa SW 13.0 km/h 13.0 km/h 49 % 0.0 mm
18:54 22.5 °C 11.2 °C 1019.9 hPa SW 13.0 km/h 13.0 km/h 49 % 0.0 mm
18:59 22.5 °C 11.2 °C 1019.9 hPa WSW 9.3 km/h 9.3 km/h 49 % 0.0 mm
19:04 22.1 °C 10.9 °C 1019.9 hPa WSW 14.8 km/h 14.8 km/h 49 % 0.0 mm
19:09 21.6 °C 10.7 °C 1019.9 hPa SSW 9.3 km/h 9.3 km/h 50 % 0.0 mm
19:19 21.6 °C 10.7 °C 1019.9 hPa SW 9.5 km/h 9.5 km/h 50 % 0.0 mm
19:20 15.7 °C 10.9 °C 1021.9 hPa WSW 1.6 km/h 4.8 km/h 73 % 0.0 mm
19:24 21.4 °C 10.6 °C 1019.9 hPa WSW 14.8 km/h 14.8 km/h 50 % 0.0 mm
19:29 21.1 °C 10.6 °C 1019.9 hPa WSW 9.3 km/h 9.3 km/h 51 % 0.0 mm
19:30 15.7 °C 11.1 °C 1021.9 hPa WSW 3.2 km/h 4.8 km/h 74 % 0.0 mm
19:34 21.0 °C 10.5 °C 1019.9 hPa West 9.3 km/h 9.3 km/h 51 % 0.0 mm
19:39 20.9 °C 10.7 °C 1019.9 hPa West 5.6 km/h 5.6 km/h 52 % 0.0 mm
19:40 15.6 °C 11.2 °C 1021.9 hPa SW 1.6 km/h 6.4 km/h 75 % 0.0 mm
19:44 20.9 °C 10.7 °C 1019.9 hPa WSW 9.3 km/h 9.3 km/h 52 % 0.0 mm
19:49 20.7 °C 10.5 °C 1019.9 hPa SW 11.1 km/h 11.1 km/h 52 % 0.0 mm
19:50 15.5 °C 11.1 °C 1021.9 hPa SW 1.6 km/h 3.2 km/h 75 % 0.0 mm
19:54 20.5 °C 10.3 °C 1020.9 hPa West 11.1 km/h 11.1 km/h 52 % 0.0 mm
19:59 20.5 °C 10.6 °C 1020.9 hPa SW 10.3 km/h 10.3 km/h 53 % 0.0 mm
20:00 15.3 °C 11.1 °C 1021.9 hPa WSW 1.6 km/h 3.2 km/h 76 % 0.0 mm
20:04 20.2 °C 10.6 °C 1020.9 hPa SW 9.3 km/h 9.3 km/h 54 % 0.0 mm
20:09 20.1 °C 10.5 °C 1020.9 hPa WSW 9.3 km/h 9.3 km/h 54 % 0.0 mm
20:10 15.3 °C 11.3 °C 1021.9 hPa WSW 3.2 km/h 4.8 km/h 77 % 0.0 mm
20:14 19.9 °C 10.6 °C 1020.9 hPa SW 9.3 km/h 9.3 km/h 55 % 0.0 mm
20:20 15.2 °C 11.4 °C 1021.9 hPa SW 3.2 km/h 4.8 km/h 78 % 0.0 mm
20:24 19.7 °C 10.7 °C 1019.9 hPa South 11.1 km/h 11.1 km/h 56 % 0.0 mm
20:29 19.4 °C 10.7 °C 1019.9 hPa WSW 9.3 km/h 9.3 km/h 57 % 0.0 mm
20:30 15.0 °C 11.4 °C 1021.9 hPa SW 1.6 km/h 4.8 km/h 79 % 0.0 mm
20:34 19.3 °C 10.6 °C 1019.9 hPa SW 9.3 km/h 9.3 km/h 57 % 0.0 mm
20:39 19.2 °C 10.7 °C 1020.9 hPa WSW 7.4 km/h 7.4 km/h 58 % 0.0 mm
20:44 19.1 °C 10.7 °C 1020.9 hPa South 10.8 km/h 10.8 km/h 58 % 0.0 mm
20:49 19.0 °C 10.6 °C 1020.9 hPa SW 9.3 km/h 9.3 km/h 58 % 0.0 mm
20:50 14.8 °C 11.4 °C 1021.9 hPa SW 3.2 km/h 4.8 km/h 80 % 0.0 mm
20:54 18.8 °C 10.6 °C 1020.9 hPa SW 6.4 km/h 7.2 km/h 59 % 0.0 mm
20:59 18.6 °C 10.7 °C 1020.9 hPa SSW 7.6 km/h 7.6 km/h 60 % 0.0 mm
21:00 14.8 °C 11.6 °C 1021.9 hPa WSW 1.6 km/h 4.8 km/h 81 % 0.0 mm
21:04 18.5 °C 10.6 °C 1020.9 hPa SSW 7.6 km/h 7.6 km/h 60 % 0.0 mm
21:09 18.4 °C 10.5 °C 1020.9 hPa SSW 7.4 km/h 7.4 km/h 60 % 0.0 mm
21:10 14.8 °C 11.6 °C 1020.9 hPa WSW 1.6 km/h 3.2 km/h 81 % 0.0 mm
21:14 18.3 °C 10.4 °C 1020.9 hPa WSW 7.4 km/h 7.4 km/h 60 % 0.0 mm
21:19 18.2 °C 10.3 °C 1020.9 hPa SSW 5.8 km/h 6.1 km/h 60 % 0.0 mm
21:20 14.8 °C 11.8 °C 1020.9 hPa West 3.2 km/h 6.4 km/h 82 % 0.0 mm
21:24 18.1 °C 10.2 °C 1020.9 hPa SSW 5.8 km/h 6.1 km/h 60 % 0.0 mm
21:29 18.0 °C 10.4 °C 1020.9 hPa SW 3.7 km/h 4.2 km/h 61 % 0.0 mm
21:30 14.7 °C 11.8 °C 1020.9 hPa West 1.6 km/h 4.8 km/h 83 % 0.0 mm
21:34 17.8 °C 10.4 °C 1020.9 hPa SW 11.1 km/h 11.1 km/h 62 % 0.0 mm
21:39 17.7 °C 10.3 °C 1020.9 hPa SSW 7.9 km/h 7.9 km/h 62 % 0.0 mm
21:40 14.6 °C 11.9 °C 1020.9 hPa WSW 3.2 km/h 4.8 km/h 84 % 0.0 mm
21:44 17.5 °C 10.1 °C 1020.9 hPa West 5.6 km/h 5.6 km/h 62 % 0.0 mm
21:50 14.5 °C 11.8 °C 1020.9 hPa WSW 1.6 km/h 3.2 km/h 84 % 0.0 mm
21:54 17.4 °C 10.1 °C 1020.9 hPa WSW 5.6 km/h 7.2 km/h 62 % 0.0 mm
21:59 17.3 °C 9.9 °C 1020.9 hPa SW 5.6 km/h 5.6 km/h 62 % 0.0 mm
22:00 14.2 °C 11.6 °C 1020.9 hPa WSW 3.2 km/h 4.8 km/h 84 % 0.0 mm
22:04 17.2 °C 9.8 °C 1020.9 hPa WSW 3.7 km/h 3.7 km/h 62 % 0.0 mm
22:09 17.1 °C 10.0 °C 1021.9 hPa SW 3.7 km/h 3.9 km/h 63 % 0.0 mm
22:10 14.0 °C 11.5 °C 1019.9 hPa SW 4.8 km/h 6.4 km/h 85 % 0.0 mm
22:14 17.0 °C 9.9 °C 1021.9 hPa SW 7.4 km/h 7.4 km/h 63 % 0.0 mm
22:19 17.0 °C 9.9 °C 1021.9 hPa WSW 5.6 km/h 5.8 km/h 63 % 0.0 mm
22:20 13.9 °C 11.6 °C 1019.9 hPa WSW 3.2 km/h 4.8 km/h 86 % 0.0 mm
22:24 16.9 °C 10.1 °C 1021.9 hPa WSW 5.6 km/h 5.8 km/h 64 % 0.0 mm
22:30 16.8 °C 9.9 °C 1021.9 hPa WSW 4.7 km/h 4.7 km/h 64 % 0.0 mm
22:35 16.8 °C 10.2 °C 1021.9 hPa SW 3.9 km/h 4.2 km/h 65 % 0.0 mm
22:40 16.7 °C 10.1 °C 1021.9 hPa SW 5.6 km/h 5.6 km/h 65 % 0.0 mm
22:45 16.6 °C 10.0 °C 1021.9 hPa SW 3.9 km/h 3.9 km/h 65 % 0.0 mm
22:50 16.6 °C 9.9 °C 1021.9 hPa SW 3.2 km/h 6.4 km/h 65 % 0.0 mm
22:55 16.5 °C 9.9 °C 1021.9 hPa SW 5.6 km/h 5.6 km/h 65 % 0.0 mm
23:00 16.5 °C 10.1 °C 1021.9 hPa WSW 3.2 km/h 8.0 km/h 66 % 0.0 mm
23:05 16.4 °C 10.1 °C 1021.9 hPa WSW 3.2 km/h 6.4 km/h 66 % 0.0 mm
23:10 16.4 °C 10.1 °C 1021.9 hPa WSW 3.7 km/h 3.7 km/h 66 % 0.0 mm
23:15 16.4 °C 10.1 °C 1021.9 hPa SW 4.7 km/h 4.7 km/h 66 % 0.0 mm
23:20 16.3 °C 10.2 °C 1021.9 hPa WSW 3.2 km/h 4.8 km/h 67 % 0.0 mm
23:25 16.2 °C 10.1 °C 1021.9 hPa WSW 3.2 km/h 8.0 km/h 67 % 0.0 mm
23:30 16.2 °C 10.3 °C 1021.9 hPa WSW 3.2 km/h 8.0 km/h 68 % 0.0 mm
23:35 16.1 °C 10.2 °C 1021.9 hPa WSW 3.2 km/h 4.8 km/h 68 % 0.0 mm
23:40 16.0 °C 10.3 °C 1021.9 hPa SW 1.6 km/h 3.2 km/h 69 % 0.0 mm
23:50 16.0 °C 10.6 °C 1021.9 hPa SW 1.6 km/h 3.2 km/h 70 % 0.0 mm
23:55 15.9 °C 10.4 °C 1020.9 hPa WSW 2.6 km/h 3.2 km/h 70 % 0.0 mm
Meteo Sesrovires
Elogis d' Weather Underground - 3.5 mb

Guio original per  Jim McMurry - jmcmurry@mwt.net Adaptat per a la plantilla per  Wim van der Kuil - Leuven-Template.eu

Trobareu la nostra informacio del temps tambe a:

Weather Underground

AWEKAS